Time;durP1;ratioP1;P1;durP2;ratioP2;P2;SDS_P1;SDS_P2;PMS_P1;PMS_P2;Temp;Humidity;BMP_temperature;BMP_pressure;BME280_temperature;BME280_humidity;BME280_pressure;Samples;Min_cycle;Max_cycle;Signal;HPM_P1;HPM_P2
2023/12/08 00:00:25;;;;;;;4.80;3.63;;;7.60;1.00;;;;;;5033688;28;20594;-82
2023/12/08 00:02:50;;;;;;;5.47;3.90;;;7.70;1.00;;;;;;5035078;28;20181;-80
2023/12/08 00:05:16;;;;;;;6.03;3.97;;;7.60;1.00;;;;;;5034196;28;20209;-82
2023/12/08 00:07:42;;;;;;;5.10;4.03;;;7.60;1.00;;;;;;5034529;28;20172;-80
2023/12/08 00:10:09;;;;;;;5.27;3.63;;;7.60;1.00;;;;;;5033398;28;20592;-81
2023/12/08 00:12:34;;;;;;;5.70;4.17;;;7.60;1.00;;;;;;5034057;28;20251;-81
2023/12/08 00:15:00;;;;;;;7.47;4.30;;;7.50;1.00;;;;;;5033905;28;20173;-80
2023/12/08 00:17:27;;;;;;;5.07;4.07;;;7.40;3.20;;;;;;5034694;28;20617;-81
2023/12/08 00:19:53;;;;;;;5.37;4.07;;;7.40;8.50;;;;;;5035588;28;20169;-80
2023/12/08 00:22:19;;;;;;;5.73;4.40;;;7.50;10.50;;;;;;5033990;28;20196;-81
2023/12/08 00:24:45;;;;;;;5.73;4.33;;;7.40;11.40;;;;;;5034143;28;20229;-81
2023/12/08 00:27:10;;;;;;;5.07;3.87;;;7.40;9.90;;;;;;5034022;28;20169;-81
2023/12/08 00:29:36;;;;;;;5.60;3.93;;;7.30;14.00;;;;;;5034688;28;20634;-80
2023/12/08 00:32:02;;;;;;;7.67;5.10;;;7.30;16.40;;;;;;5035350;28;20169;-82
2023/12/08 00:34:27;;;;;;;8.20;5.03;;;7.30;17.50;;;;;;5033763;28;20650;-81
2023/12/08 00:36:53;;;;;;;6.23;4.43;;;7.40;17.30;;;;;;5033457;28;20216;-81
2023/12/08 00:39:19;;;;;;;6.63;4.90;;;7.40;17.90;;;;;;5034928;28;20634;-81
2023/12/08 00:41:44;;;;;;;8.17;4.80;;;7.40;17.80;;;;;;5033817;28;20541;-80
2023/12/08 00:44:11;;;;;;;5.60;4.67;;;7.20;20.80;;;;;;5033772;28;20197;-81
2023/12/08 00:46:36;;;;;;;7.00;4.57;;;7.20;25.40;;;;;;5034342;28;20260;-80
2023/12/08 00:49:02;;;;;;;7.50;5.17;;;7.30;22.90;;;;;;5033925;28;20708;-81
2023/12/08 00:51:28;;;;;;;6.20;4.47;;;7.20;22.30;;;;;;5032774;28;20550;-81
2023/12/08 00:53:53;;;;;;;6.17;4.47;;;7.20;26.50;;;;;;5033745;28;20638;-81
2023/12/08 00:56:19;;;;;;;6.90;5.10;;;7.20;27.90;;;;;;5033876;28;20626;-80
2023/12/08 00:58:44;;;;;;;6.20;4.93;;;7.00;28.60;;;;;;5033036;28;20708;-81
2023/12/08 01:01:11;;;;;;;6.27;4.80;;;6.90;33.10;;;;;;5033617;28;20600;-81
2023/12/08 01:03:36;;;;;;;6.77;5.10;;;7.00;33.80;;;;;;5033612;28;20197;-79
2023/12/08 01:06:02;;;;;;;6.93;4.77;;;6.90;37.10;;;;;;5033691;28;20193;-83
2023/12/08 01:08:28;;;;;;;7.03;4.83;;;7.00;38.10;;;;;;5033367;28;20207;-80
2023/12/08 01:10:53;;;;;;;6.30;4.87;;;6.90;39.40;;;;;;5034250;28;20659;-81
2023/12/08 01:13:19;;;;;;;6.50;5.10;;;6.80;43.60;;;;;;5032409;28;20583;-81
2023/12/08 01:15:45;;;;;;;6.53;5.17;;;6.80;46.10;;;;;;5032299;28;20582;-81
2023/12/08 01:18:11;;;;;;;7.40;5.27;;;6.80;48.60;;;;;;5033904;28;20173;-81
2023/12/08 01:20:37;;;;;;;8.30;5.67;;;6.80;48.60;;;;;;5034782;28;20181;-81
2023/12/08 01:23:02;;;;;;;7.90;5.87;;;6.70;53.50;;;;;;5033086;28;20621;-85
2023/12/08 01:25:28;;;;;;;8.13;6.13;;;6.80;56.00;;;;;;5033537;28;20661;-84
2023/12/08 01:27:55;;;;;;;7.67;5.37;;;6.90;52.20;;;;;;5033533;28;20258;-81
2023/12/08 01:30:21;;;;;;;7.00;5.93;;;6.60;53.40;;;;;;5034816;28;20224;-87
2023/12/08 01:32:46;;;;;;;9.43;6.43;;;6.70;57.70;;;;;;5033540;28;20182;-84
2023/12/08 01:35:12;;;;;;;7.53;5.80;;;6.80;57.70;;;;;;5032994;28;20188;-85
2023/12/08 01:37:38;;;;;;;7.27;5.53;;;6.80;57.90;;;;;;5033118;28;20236;-82
2023/12/08 01:40:06;;;;;;;8.17;5.83;;;6.70;56.50;;;;;;5031203;28;20177;-82
2023/12/08 01:42:32;;;;;;;6.97;5.83;;;6.80;59.40;;;;;;5031267;28;20182;-81
2023/12/08 01:44:58;;;;;;;7.63;5.90;;;6.70;59.30;;;;;;5032472;28;20279;-81
2023/12/08 01:47:23;;;;;;;8.07;5.97;;;6.80;60.00;;;;;;5031773;28;20236;-82
2023/12/08 01:49:51;;;;;;;7.13;6.10;;;6.70;62.80;;;;;;5032384;28;20628;-82
2023/12/08 01:52:21;;;;;;;7.70;6.60;;;6.70;62.10;;;;;;5033857;28;20166;-81
2023/12/08 01:54:50;;;;;;;7.60;5.73;;;6.60;63.60;;;;;;5032305;28;20188;-81
2023/12/08 01:57:17;;;;;;;8.17;6.40;;;6.60;68.10;;;;;;5032440;28;20269;-81
2023/12/08 01:59:43;;;;;;;8.10;6.73;;;6.60;71.50;;;;;;5031933;28;20184;-82
2023/12/08 02:02:09;;;;;;;9.00;5.93;;;6.50;73.70;;;;;;5031982;28;20177;-83
2023/12/08 02:04:34;;;;;;;8.53;6.50;;;6.70;75.20;;;;;;5031532;28;20576;-81
2023/12/08 02:07:01;;;;;;;10.60;7.17;;;6.60;74.80;;;;;;5032929;28;20170;-81
2023/12/08 02:09:27;;;;;;;10.33;7.00;;;6.60;76.80;;;;;;5030963;28;20213;-81
2023/12/08 02:11:52;;;;;;;8.37;6.67;;;6.60;78.40;;;;;;5030984;28;20178;-81
2023/12/08 02:14:19;;;;;;;8.07;6.70;;;6.50;83.00;;;;;;5032012;28;20614;-81
2023/12/08 02:16:51;;;;;;;9.27;7.37;;;6.60;83.70;;;;;;5031572;28;20169;-82
2023/12/08 02:19:17;;;;;;;9.17;7.00;;;6.70;84.20;;;;;;5033057;28;20170;-82
2023/12/08 02:21:43;;;;;;;8.90;6.90;;;6.60;83.50;;;;;;5032002;28;20169;-81
2023/12/08 02:24:09;;;;;;;8.30;7.00;;;6.80;82.30;;;;;;5031621;28;20263;-81
2023/12/08 02:26:35;;;;;;;9.47;7.93;;;6.60;80.70;;;;;;5032567;28;20189;-81
2023/12/08 02:29:00;;;;;;;9.83;7.43;;;6.70;84.50;;;;;;5032018;28;20522;-81
2023/12/08 02:31:52;;;;;;;10.37;7.20;;;6.40;87.10;;;;;;5031484;28;20634;-81
2023/12/08 02:34:21;;;;;;;9.03;7.37;;;6.30;91.70;;;;;;5030122;28;20193;-81
2023/12/08 02:36:49;;;;;;;8.90;7.50;;;6.20;94.80;;;;;;5031619;28;20176;-81
2023/12/08 02:39:16;;;;;;;10.00;7.07;;;6.20;91.70;;;;;;5032911;28;20634;-80
2023/12/08 02:41:42;;;;;;;10.33;7.60;;;6.20;93.50;;;;;;5032702;28;20166;-80
2023/12/08 02:44:08;;;;;;;11.23;7.63;;;6.20;94.50;;;;;;5030848;28;20275;-81
2023/12/08 02:46:34;;;;;;;10.60;7.97;;;6.20;96.30;;;;;;5033197;28;20169;-81
2023/12/08 02:49:00;;;;;;;10.00;8.57;;;6.10;98.60;;;;;;5031244;28;20178;-81
2023/12/08 02:51:25;;;;;;;9.63;7.40;;;6.20;99.90;;;;;;5032892;28;20173;-81
2023/12/08 02:53:52;;;;;;;8.83;7.27;;;6.00;99.90;;;;;;5031198;28;20701;-80
2023/12/08 02:56:18;;;;;;;9.47;7.40;;;6.00;99.90;;;;;;5032650;28;20237;-81
2023/12/08 02:58:44;;;;;;;10.13;7.67;;;5.90;99.90;;;;;;5031051;28;20192;-81
2023/12/08 03:01:10;;;;;;;11.30;8.43;;;5.90;99.90;;;;;;5029279;28;20212;-81
2023/12/08 03:03:35;;;;;;;10.67;8.73;;;5.90;99.90;;;;;;5030292;28;20649;-81
2023/12/08 03:06:01;;;;;;;11.30;8.40;;;5.90;99.90;;;;;;5032553;28;20307;-80
2023/12/08 03:08:27;;;;;;;9.77;7.87;;;5.90;99.90;;;;;;5030993;28;20641;-82
2023/12/08 03:10:52;;;;;;;10.20;8.40;;;6.00;99.90;;;;;;5032111;28;20233;-81
2023/12/08 03:13:18;;;;;;;9.20;7.50;;;5.90;99.90;;;;;;5032231;28;20172;-80
2023/12/08 03:15:44;;;;;;;10.40;8.43;;;5.90;99.90;;;;;;5031498;28;20657;-81
2023/12/08 03:18:09;;;;;;;11.43;8.30;;;5.90;99.90;;;;;;5030822;28;20624;-80
2023/12/08 03:20:35;;;;;;;10.10;8.73;;;6.00;99.90;;;;;;5031159;28;20649;-79
2023/12/08 03:23:00;;;;;;;11.67;8.87;;;5.80;99.90;;;;;;5029604;28;20185;-80
2023/12/08 03:25:26;;;;;;;12.80;8.53;;;5.90;99.90;;;;;;5030206;28;20270;-81
2023/12/08 03:27:52;;;;;;;12.77;8.47;;;5.90;99.90;;;;;;5029638;28;20525;-80
2023/12/08 03:30:17;;;;;;;11.77;8.60;;;6.00;99.90;;;;;;5029486;28;20658;-80
2023/12/08 03:32:43;;;;;;;10.47;8.13;;;6.00;99.90;;;;;;5029870;28;20690;-81
2023/12/08 03:35:09;;;;;;;12.10;9.23;;;6.00;99.90;;;;;;5028963;28;20174;-81
2023/12/08 03:37:34;;;;;;;12.33;8.77;;;6.10;99.90;;;;;;5029676;28;20261;-81
2023/12/08 03:40:00;;;;;;;10.93;8.83;;;5.90;99.90;;;;;;5029557;28;20170;-80
2023/12/08 03:42:26;;;;;;;11.57;8.30;;;6.10;99.90;;;;;;5029133;28;20597;-81
2023/12/08 03:44:51;;;;;;;12.07;9.17;;;6.10;99.90;;;;;;5029812;28;20209;-80
2023/12/08 03:47:18;;;;;;;11.33;8.73;;;6.10;99.90;;;;;;5031965;28;20689;-81
2023/12/08 03:49:44;;;;;;;10.30;8.97;;;6.10;99.90;;;;;;5030879;28;20178;-80
2023/12/08 03:52:10;;;;;;;10.23;8.70;;;6.10;99.90;;;;;;5030702;28;20173;-80
2023/12/08 03:54:35;;;;;;;10.10;8.30;;;6.00;99.90;;;;;;5030556;28;20227;-80
2023/12/08 03:57:01;;;;;;;11.53;8.97;;;6.00;99.90;;;;;;5030521;28;20196;-82
2023/12/08 03:59:26;;;;;;;13.43;9.43;;;6.00;99.90;;;;;;5030411;28;20534;-81
2023/12/08 04:01:53;;;;;;;11.83;8.87;;;6.00;99.90;;;;;;5031119;28;20541;-81
2023/12/08 04:04:18;;;;;;;12.10;9.70;;;6.00;99.90;;;;;;5032013;28;20553;-80
2023/12/08 04:06:44;;;;;;;11.83;9.33;;;6.00;99.90;;;;;;5028830;28;20178;-80
2023/12/08 04:09:10;;;;;;;11.97;8.93;;;6.00;99.90;;;;;;5030705;28;20248;-80
2023/12/08 04:11:35;;;;;;;14.70;10.03;;;6.10;99.90;;;;;;5029777;28;20178;-80
2023/12/08 04:14:01;;;;;;;12.60;9.80;;;6.20;99.90;;;;;;5031362;28;20170;-80
2023/12/08 04:16:27;;;;;;;12.63;9.53;;;6.20;99.90;;;;;;5028965;28;20239;-80
2023/12/08 04:18:52;;;;;;;12.30;10.60;;;6.20;99.90;;;;;;5029833;28;20260;-83
2023/12/08 04:21:19;;;;;;;13.30;9.50;;;6.20;99.90;;;;;;5030038;28;20177;-80
2023/12/08 04:23:45;;;;;;;11.87;9.10;;;6.20;99.90;;;;;;5030368;28;20210;-80
2023/12/08 04:26:11;;;;;;;16.43;10.47;;;6.30;99.90;;;;;;5029977;28;20185;-80
2023/12/08 04:28:37;;;;;;;14.63;9.87;;;6.20;99.90;;;;;;5028836;28;20178;-80
2023/12/08 04:31:04;;;;;;;14.63;10.50;;;6.20;99.90;;;;;;5030154;28;20188;-81
2023/12/08 04:33:29;;;;;;;15.53;10.27;;;6.20;99.90;;;;;;5030304;28;20197;-81
2023/12/08 04:35:55;;;;;;;16.50;11.37;;;6.30;99.90;;;;;;5029726;28;20205;-80
2023/12/08 04:38:20;;;;;;;14.33;10.20;;;6.30;99.90;;;;;;5028558;28;20695;-81
2023/12/08 04:40:46;;;;;;;15.97;10.50;;;6.40;99.90;;;;;;5029210;28;20173;-80
2023/12/08 04:43:12;;;;;;;19.60;11.73;;;6.40;99.90;;;;;;5033851;28;20185;-80
2023/12/08 04:45:38;;;;;;;16.97;11.27;;;6.30;99.90;;;;;;5033067;28;20244;-80
2023/12/08 04:48:03;;;;;;;21.00;12.13;;;6.30;99.90;;;;;;5032809;28;20230;-80
2023/12/08 04:50:29;;;;;;;16.77;11.23;;;6.40;99.90;;;;;;5032920;28;20573;-79
2023/12/08 04:52:55;;;;;;;20.27;11.70;;;6.40;99.90;;;;;;5032871;28;20671;-79
2023/12/08 04:55:21;;;;;;;16.97;11.47;;;6.50;99.90;;;;;;5033680;28;20181;-84
2023/12/08 04:57:46;;;;;;;19.10;11.67;;;6.40;99.90;;;;;;5033420;28;20176;-80
2023/12/08 05:00:12;;;;;;;20.80;12.10;;;6.50;99.90;;;;;;5033171;28;20181;-81
2023/12/08 05:02:38;;;;;;;19.40;12.73;;;6.40;99.90;;;;;;5034159;28;20243;-80
2023/12/08 05:05:04;;;;;;;22.30;12.40;;;6.40;99.90;;;;;;5033095;28;20232;-80
2023/12/08 05:07:29;;;;;;;20.13;12.57;;;6.50;99.90;;;;;;5032962;28;20618;-80
2023/12/08 05:09:55;;;;;;;20.57;11.90;;;6.50;99.90;;;;;;5032656;28;20213;-82
2023/12/08 05:12:21;;;;;;;22.67;13.63;;;6.50;99.90;;;;;;5032658;28;20184;-81
2023/12/08 05:14:46;;;;;;;20.83;12.70;;;6.60;99.90;;;;;;5033806;28;20550;-81
2023/12/08 05:17:12;;;;;;;23.77;12.67;;;6.50;99.90;;;;;;5033577;28;20193;-80
2023/12/08 05:19:37;;;;;;;22.93;12.63;;;6.60;99.90;;;;;;5032921;28;20200;-81
2023/12/08 05:22:04;;;;;;;21.47;12.23;;;6.60;99.90;;;;;;5033114;28;20548;-85
2023/12/08 05:24:30;;;;;;;26.17;14.10;;;6.50;99.90;;;;;;5032946;28;20236;-80
2023/12/08 05:26:55;;;;;;;20.90;13.17;;;6.60;99.90;;;;;;5032759;28;20213;-80
2023/12/08 05:29:21;;;;;;;20.77;13.20;;;6.50;99.90;;;;;;5032886;28;20227;-81
2023/12/08 05:31:47;;;;;;;23.77;13.27;;;6.50;99.90;;;;;;5032925;28;20181;-82
2023/12/08 05:34:13;;;;;;;22.23;13.50;;;6.60;99.90;;;;;;5032685;28;20272;-81
2023/12/08 05:36:39;;;;;;;26.07;14.17;;;6.50;99.90;;;;;;5032383;28;20181;-81
2023/12/08 05:39:06;;;;;;;26.50;14.13;;;6.60;99.90;;;;;;5032566;28;20540;-81
2023/12/08 05:41:31;;;;;;;28.80;15.30;;;6.50;99.90;;;;;;5032467;28;20622;-81
2023/12/08 05:43:57;;;;;;;25.90;15.03;;;6.50;99.90;;;;;;5032632;28;20204;-81
2023/12/08 05:46:23;;;;;;;29.77;14.87;;;6.70;99.90;;;;;;5031513;28;20543;-80
2023/12/08 05:48:48;;;;;;;23.43;15.33;;;6.60;99.90;;;;;;5032345;28;20197;-80
2023/12/08 05:51:14;;;;;;;22.77;14.60;;;6.60;99.90;;;;;;5032237;28;20704;-81
2023/12/08 05:53:41;;;;;;;27.07;15.40;;;6.60;99.90;;;;;;5033203;28;20243;-82
2023/12/08 05:56:07;;;;;;;29.30;17.47;;;6.70;99.90;;;;;;5032079;28;20817;-80
2023/12/08 05:58:33;;;;;;;28.57;16.40;;;6.60;99.90;;;;;;5031503;28;20280;-81
2023/12/08 06:00:59;;;;;;;29.00;16.03;;;6.70;99.90;;;;;;5030639;28;20177;-82
2023/12/08 06:03:24;;;;;;;32.07;16.77;;;6.60;99.90;;;;;;5031031;28;20622;-81
2023/12/08 06:05:50;;;;;;;30.10;16.40;;;6.70;99.90;;;;;;5031589;28;20515;-80
2023/12/08 06:08:16;;;;;;;31.47;16.73;;;6.70;99.90;;;;;;5031840;28;20300;-81
2023/12/08 06:10:42;;;;;;;30.63;16.47;;;6.80;99.90;;;;;;5031928;28;20212;-82
2023/12/08 06:13:08;;;;;;;30.50;16.40;;;6.80;99.90;;;;;;5031364;28;20584;-80
2023/12/08 06:15:34;;;;;;;31.90;18.00;;;6.90;99.90;;;;;;5031601;28;20209;-82
2023/12/08 06:17:59;;;;;;;30.57;17.40;;;6.90;99.90;;;;;;5033166;28;20178;-81
2023/12/08 06:20:25;;;;;;;31.00;17.67;;;6.90;99.90;;;;;;5030258;28;20205;-82
2023/12/08 06:22:51;;;;;;;31.10;17.80;;;6.90;99.90;;;;;;5033100;28;20545;-81
2023/12/08 06:25:16;;;;;;;31.63;17.07;;;6.90;99.90;;;;;;5031475;28;20646;-82
2023/12/08 06:27:43;;;;;;;30.87;18.00;;;6.90;99.90;;;;;;5031619;28;20193;-82
2023/12/08 06:30:09;;;;;;;31.23;18.17;;;6.90;99.90;;;;;;5031356;28;20543;-81
2023/12/08 06:32:35;;;;;;;31.63;18.10;;;6.90;99.90;;;;;;5031472;28;20208;-80
2023/12/08 06:35:01;;;;;;;28.23;16.97;;;7.00;99.90;;;;;;5031700;28;20213;-80
2023/12/08 06:37:27;;;;;;;29.07;17.40;;;6.90;99.90;;;;;;5030901;28;20219;-82
2023/12/08 06:39:52;;;;;;;33.13;17.27;;;6.90;99.90;;;;;;5031427;28;20181;-82
2023/12/08 06:42:18;;;;;;;30.23;18.37;;;6.90;99.90;;;;;;5032335;28;20173;-81
2023/12/08 06:44:44;;;;;;;36.77;19.83;;;7.00;99.90;;;;;;5031410;28;21057;-81
2023/12/08 06:47:09;;;;;;;37.90;18.77;;;7.00;99.90;;;;;;5031041;28;20577;-81
2023/12/08 06:49:35;;;;;;;32.70;18.60;;;7.00;99.90;;;;;;5031511;28;20801;-80
2023/12/08 06:52:01;;;;;;;37.50;19.50;;;7.10;99.90;;;;;;5032908;28;20181;-81
2023/12/08 06:54:26;;;;;;;37.67;19.40;;;7.10;99.90;;;;;;5031592;28;20264;-81
2023/12/08 06:56:52;;;;;;;33.53;18.67;;;7.10;99.90;;;;;;5031065;28;20537;-82
2023/12/08 06:59:18;;;;;;;34.67;19.10;;;7.10;99.90;;;;;;5031332;28;20197;-82
2023/12/08 07:01:43;;;;;;;41.93;19.90;;;7.20;99.90;;;;;;5031066;28;20227;-82
2023/12/08 07:04:10;;;;;;;39.03;19.00;;;7.20;99.90;;;;;;5030848;28;20266;-82
2023/12/08 07:06:36;;;;;;;37.07;18.60;;;7.20;99.90;;;;;;5028852;28;20181;-81
2023/12/08 07:09:01;;;;;;;33.77;19.23;;;7.30;99.90;;;;;;5029660;28;20263;-84
2023/12/08 07:11:27;;;;;;;37.53;19.33;;;7.20;99.90;;;;;;5031428;28;20169;-82
2023/12/08 07:13:53;;;;;;;39.83;18.70;;;7.20;99.90;;;;;;5029996;28;20179;-83
2023/12/08 07:16:18;;;;;;;36.90;20.00;;;7.30;99.90;;;;;;5029296;28;20195;-84
2023/12/08 07:18:45;;;;;;;40.43;19.77;;;7.20;99.90;;;;;;5030043;28;20418;-84
2023/12/08 07:21:11;;;;;;;34.87;19.63;;;7.30;99.90;;;;;;5026717;28;20188;-83
2023/12/08 07:23:37;;;;;;;39.40;20.67;;;7.20;99.90;;;;;;5020324;28;20170;-83
2023/12/08 07:26:04;;;;;;;40.00;19.80;;;7.30;99.90;;;;;;5021955;28;20170;-82
2023/12/08 07:28:30;;;;;;;37.90;19.80;;;7.20;99.90;;;;;;5020058;28;20169;-84
2023/12/08 07:30:56;;;;;;;34.87;19.57;;;7.20;99.90;;;;;;5019138;28;20177;-84
2023/12/08 07:33:21;;;;;;;37.10;19.67;;;7.30;99.90;;;;;;5020895;28;20227;-84
2023/12/08 07:35:47;;;;;;;39.20;19.40;;;7.40;99.90;;;;;;5021626;28;20177;-84
2023/12/08 07:38:13;;;;;;;36.53;19.77;;;7.40;99.90;;;;;;5029677;28;20166;-85
2023/12/08 07:40:39;;;;;;;38.10;19.93;;;7.30;99.90;;;;;;5030282;28;20169;-84
2023/12/08 07:43:05;;;;;;;38.03;20.47;;;7.40;99.90;;;;;;5031690;28;20244;-83
2023/12/08 07:45:30;;;;;;;37.70;20.07;;;7.40;99.90;;;;;;5030704;28;20283;-84
2023/12/08 07:47:57;;;;;;;39.60;19.87;;;7.40;99.90;;;;;;5031366;28;20638;-83
2023/12/08 07:50:22;;;;;;;43.60;19.43;;;7.40;99.90;;;;;;5030881;28;20174;-83
2023/12/08 07:52:48;;;;;;;38.53;20.37;;;7.50;99.90;;;;;;5030529;28;20177;-84
2023/12/08 07:55:14;;;;;;;36.43;18.70;;;7.50;99.90;;;;;;5031929;28;20165;-83
2023/12/08 07:57:39;;;;;;;41.77;20.13;;;7.50;99.90;;;;;;5030770;28;20174;-83
2023/12/08 08:00:06;;;;;;;39.93;20.43;;;7.50;99.90;;;;;;5031339;28;20201;-83
2023/12/08 08:02:32;;;;;;;47.33;21.37;;;7.50;99.90;;;;;;5030352;28;20178;-83
2023/12/08 08:04:58;;;;;;;43.47;20.70;;;7.50;99.90;;;;;;5030190;28;20239;-84
2023/12/08 08:07:24;;;;;;;37.67;19.60;;;7.50;99.90;;;;;;5030987;28;20174;-82
2023/12/08 08:09:51;;;;;;;38.50;20.20;;;7.50;99.90;;;;;;5030531;28;20213;-82
2023/12/08 08:12:17;;;;;;;36.03;20.27;;;7.60;99.90;;;;;;5030566;28;20611;-82
2023/12/08 08:14:43;;;;;;;40.97;19.93;;;7.60;99.90;;;;;;5030249;28;20653;-84
2023/12/08 08:17:08;;;;;;;42.80;21.00;;;7.60;99.90;;;;;;5033228;28;20181;-84
2023/12/08 08:19:34;;;;;;;41.73;21.13;;;7.60;99.90;;;;;;5034425;28;20209;-83
2023/12/08 08:22:00;;;;;;;37.77;21.73;;;7.60;99.90;;;;;;5034694;28;20698;-84
2023/12/08 08:24:26;;;;;;;35.43;20.73;;;7.70;99.90;;;;;;5034752;28;20249;-84
2023/12/08 08:26:53;;;;;;;41.27;22.23;;;7.70;99.90;;;;;;5034765;28;20173;-85
2023/12/08 08:29:18;;;;;;;46.27;21.67;;;7.70;99.90;;;;;;5034300;28;20228;-82
2023/12/08 08:31:44;;;;;;;38.90;20.60;;;7.70;99.90;;;;;;5034366;28;20841;-83
2023/12/08 08:34:10;;;;;;;39.63;19.77;;;7.80;99.90;;;;;;5034392;28;20182;-83
2023/12/08 08:36:35;;;;;;;40.93;20.27;;;7.80;99.90;;;;;;5034290;28;20177;-83
2023/12/08 08:39:03;;;;;;;43.87;20.23;;;7.80;99.90;;;;;;5027263;28;20178;-82
2023/12/08 08:41:29;;;;;;;39.53;20.00;;;7.90;99.90;;;;;;5015512;28;20611;-82
2023/12/08 08:43:55;;;;;;;35.23;20.17;;;7.80;99.90;;;;;;5013902;28;20210;-83
2023/12/08 08:46:20;;;;;;;31.07;18.87;;;7.90;99.90;;;;;;5013995;28;20174;-84
2023/12/08 08:48:46;;;;;;;36.73;18.80;;;7.90;99.90;;;;;;5014280;28;20698;-82
2023/12/08 08:51:14;;;;;;;38.40;18.77;;;8.00;99.90;;;;;;5014221;28;20642;-83
2023/12/08 08:53:39;;;;;;;33.17;19.30;;;8.00;99.90;;;;;;5014096;28;20192;-83
2023/12/08 08:56:05;;;;;;;40.33;18.80;;;8.20;99.90;;;;;;5013744;28;20709;-83
2023/12/08 08:58:32;;;;;;;34.93;18.67;;;8.10;99.90;;;;;;5013685;28;20178;-82
2023/12/08 09:00:58;;;;;;;35.03;17.57;;;8.10;99.90;;;;;;5013778;28;20206;-82
2023/12/08 09:03:24;;;;;;;33.47;16.70;;;8.20;99.90;;;;;;5030619;28;20221;-82
2023/12/08 09:05:49;;;;;;;33.33;16.90;;;8.30;99.90;;;;;;5013978;28;20241;-83
2023/12/08 09:08:15;;;;;;;35.50;18.20;;;8.40;99.90;;;;;;5013800;28;20186;-82
2023/12/08 09:10:45;;;;;;;29.57;16.23;;;8.30;99.90;;;;;;5013762;28;20198;-83
2023/12/08 09:13:11;;;;;;;28.97;15.93;;;8.30;99.90;;;;;;5013764;28;20237;-83
2023/12/08 09:15:37;;;;;;;33.00;16.90;;;8.20;99.90;;;;;;5013967;28;20541;-83
2023/12/08 09:18:03;;;;;;;38.27;16.43;;;8.20;99.90;;;;;;5013731;28;20174;-84
2023/12/08 09:20:29;;;;;;;33.57;16.77;;;8.10;99.90;;;;;;5013564;28;20186;-83
2023/12/08 09:22:54;;;;;;;31.77;17.27;;;8.10;99.90;;;;;;5013683;28;20653;-83
2023/12/08 09:25:21;;;;;;;40.87;18.43;;;8.00;99.90;;;;;;5013187;28;20229;-82
2023/12/08 09:27:47;;;;;;;34.13;17.40;;;8.00;99.90;;;;;;5012621;28;20181;-82
2023/12/08 09:30:13;;;;;;;36.43;18.47;;;8.00;99.90;;;;;;5014507;28;20189;-82
2023/12/08 09:32:39;;;;;;;36.43;18.37;;;8.10;99.90;;;;;;5013310;28;20174;-82
2023/12/08 09:35:05;;;;;;;41.50;18.50;;;8.10;99.90;;;;;;5015006;28;20642;-83
2023/12/08 09:37:30;;;;;;;32.53;18.07;;;8.10;99.90;;;;;;5013089;28;20197;-81
2023/12/08 09:39:56;;;;;;;40.43;19.73;;;8.30;99.90;;;;;;5013528;28;20634;-82
2023/12/08 09:42:37;;;;;;;40.13;20.33;;;8.30;99.90;;;;;;5012864;28;20209;-84
2023/12/08 09:45:09;;;;;;;40.20;20.77;;;8.20;99.90;;;;;;5012994;28;20225;-83
2023/12/08 09:47:36;;;;;;;40.17;20.63;;;8.20;99.90;;;;;;5012927;28;20261;-83
2023/12/08 09:50:09;;;;;;;37.87;19.87;;;8.40;99.90;;;;;;5013005;28;20267;-84
2023/12/08 09:52:35;;;;;;;36.77;18.80;;;8.30;99.90;;;;;;5013138;28;20186;-84
2023/12/08 09:55:01;;;;;;;33.97;18.53;;;8.30;99.90;;;;;;5012838;28;20236;-82
2023/12/08 09:57:33;;;;;;;38.17;19.07;;;8.20;99.90;;;;;;5029028;28;20182;-83
2023/12/08 10:00:02;;;;;;;41.03;19.70;;;8.30;99.90;;;;;;5012636;28;20178;-82
2023/12/08 10:02:28;;;;;;;38.60;19.43;;;8.30;99.90;;;;;;5012970;28;20178;-82
2023/12/08 10:04:53;;;;;;;34.30;17.60;;;8.40;99.90;;;;;;5012605;28;20264;-84
2023/12/08 10:07:20;;;;;;;34.37;17.23;;;8.50;99.90;;;;;;5012643;28;20170;-84
2023/12/08 10:09:46;;;;;;;39.57;18.23;;;8.50;99.90;;;;;;5012349;28;20214;-82
2023/12/08 10:12:12;;;;;;;37.80;18.27;;;8.50;99.90;;;;;;5012359;28;20171;-83
2023/12/08 10:14:52;;;;;;;32.63;17.67;;;8.50;99.90;;;;;;5013767;28;20668;-84
2023/12/08 10:17:18;;;;;;;31.10;17.17;;;8.50;99.90;;;;;;5012501;28;20312;-83
2023/12/08 10:19:44;;;;;;;29.30;16.17;;;8.50;99.90;;;;;;5029190;28;20208;-83
2023/12/08 10:22:09;;;;;;;30.57;16.23;;;8.50;99.90;;;;;;5012174;28;20188;-83
2023/12/08 10:24:35;;;;;;;30.07;15.87;;;8.50;99.90;;;;;;5011915;28;20293;-83
2023/12/08 10:27:01;;;;;;;29.90;14.97;;;8.60;99.90;;;;;;5012360;28;20178;-85
2023/12/08 10:29:31;;;;;;;27.50;14.83;;;8.70;99.90;;;;;;5012422;28;20486;-82
2023/12/08 10:32:00;;;;;;;26.87;15.30;;;8.60;99.90;;;;;;5012090;28;20181;-83
2023/12/08 10:34:27;;;;;;;25.53;15.07;;;8.50;99.90;;;;;;5012207;28;20179;-84
2023/12/08 10:36:56;;;;;;;25.73;15.03;;;8.60;99.90;;;;;;5011925;28;20606;-83
2023/12/08 10:39:23;;;;;;;29.63;15.70;;;8.60;99.90;;;;;;5011942;28;20253;-83
2023/12/08 10:41:52;;;;;;;29.17;15.57;;;8.50;99.90;;;;;;5013659;28;20183;-83
2023/12/08 10:44:21;;;;;;;30.07;15.33;;;8.50;99.90;;;;;;5013215;28;20189;-83
2023/12/08 10:46:50;;;;;;;29.57;15.03;;;8.60;99.90;;;;;;5011453;28;20206;-84
2023/12/08 10:49:21;;;;;;;31.17;15.47;;;8.60;99.90;;;;;;5011738;28;20177;-83
2023/12/08 10:51:48;;;;;;;27.13;15.00;;;8.60;99.90;;;;;;5011881;28;20265;-83
2023/12/08 10:54:17;;;;;;;27.67;13.77;;;8.60;99.90;;;;;;5011768;28;20253;-84
2023/12/08 10:56:48;;;;;;;26.33;15.03;;;8.60;99.90;;;;;;5011122;28;20197;-85
2023/12/08 10:59:21;;;;;;;29.13;14.37;;;8.60;99.90;;;;;;5009168;28;20198;-83
2023/12/08 11:01:48;;;;;;;29.53;14.60;;;8.60;99.90;;;;;;5027155;28;20231;-84
2023/12/08 11:04:23;;;;;;;29.97;15.00;;;8.60;99.90;;;;;;5029224;28;20205;-83
2023/12/08 11:06:59;;;;;;;30.03;14.03;;;8.60;99.90;;;;;;5027896;28;20208;-85
2023/12/08 11:09:28;;;;;;;25.70;13.47;;;8.60;99.90;;;;;;5028637;28;20755;-81
2023/12/08 11:11:56;;;;;;;23.43;13.57;;;8.60;99.90;;;;;;5027278;28;20248;-83
2023/12/08 11:14:37;;;;;;;24.60;13.00;;;8.80;99.90;;;;;;5027631;28;20177;-83
2023/12/08 11:17:08;;;;;;;26.90;13.57;;;8.80;99.90;;;;;;5029115;28;20352;-82
2023/12/08 11:19:36;;;;;;;23.70;13.67;;;8.80;99.90;;;;;;5027987;28;20177;-83
2023/12/08 11:22:02;;;;;;;27.87;13.30;;;8.80;99.90;;;;;;5027506;28;20185;-80
2023/12/08 11:24:28;;;;;;;32.07;14.63;;;8.80;99.90;;;;;;5027225;28;20225;-83
2023/12/08 11:27:07;;;;;;;25.90;13.97;;;8.90;99.90;;;;;;5027549;28;21541;-84
2023/12/08 11:29:52;;;;;;;23.60;12.57;;;8.90;99.90;;;;;;5028286;28;20188;-83
2023/12/08 11:32:29;;;;;;;24.87;13.17;;;8.80;99.90;;;;;;5027792;28;20186;-83
2023/12/08 11:34:59;;;;;;;24.73;14.67;;;8.70;99.90;;;;;;5026754;28;20535;-83
2023/12/08 11:37:29;;;;;;;26.17;13.30;;;8.70;99.90;;;;;;5027319;28;20318;-84
2023/12/08 11:40:07;;;;;;;25.47;13.73;;;8.80;99.90;;;;;;5026918;28;20316;-83
2023/12/08 11:42:33;;;;;;;27.47;14.00;;;8.70;99.90;;;;;;5027535;28;20566;-83
2023/12/08 11:45:00;;;;;;;24.43;13.63;;;8.80;99.90;;;;;;5027297;28;20232;-83
2023/12/08 11:47:26;;;;;;;22.77;13.77;;;8.80;99.90;;;;;;5027488;28;20197;-82
2023/12/08 11:49:53;;;;;;;27.30;13.80;;;8.80;99.90;;;;;;5027067;28;20184;-84
2023/12/08 11:52:20;;;;;;;25.30;13.13;;;8.80;99.90;;;;;;5029567;28;20655;-81
2023/12/08 11:55:09;;;;;;;26.93;14.50;;;8.80;99.90;;;;;;5030711;28;20182;-81
2023/12/08 11:58:06;;;;;;;27.93;13.57;;;8.80;99.90;;;;;;5031267;28;20260;-81
2023/12/08 12:00:37;;;;;;;26.20;13.37;;;8.80;99.90;;;;;;5031903;28;20204;-86
2023/12/08 12:03:06;;;;;;;22.30;12.53;;;8.80;99.90;;;;;;5031881;28;20177;-86
2023/12/08 12:05:32;;;;;;;28.90;13.27;;;9.00;99.90;;;;;;5031535;28;20263;-84
2023/12/08 12:07:58;;;;;;;25.17;12.40;;;9.00;99.90;;;;;;5030823;28;20234;-83
2023/12/08 12:10:25;;;;;;;29.87;12.03;;;9.00;99.90;;;;;;5032370;28;20591;-84
2023/12/08 12:12:57;;;;;;;21.40;11.37;;;9.10;99.90;;;;;;5030763;28;20185;-84
2023/12/08 12:15:25;;;;;;;20.90;11.37;;;9.10;99.90;;;;;;5030793;28;20288;-83
2023/12/08 12:17:53;;;;;;;27.03;12.63;;;9.10;99.90;;;;;;5032162;28;20490;-84
2023/12/08 12:20:19;;;;;;;22.63;11.80;;;9.00;99.90;;;;;;5031047;28;20570;-83
2023/12/08 12:22:45;;;;;;;22.50;12.17;;;9.00;99.90;;;;;;5030404;28;20220;-84
2023/12/08 12:25:11;;;;;;;21.33;11.73;;;9.10;99.90;;;;;;5031056;28;20221;-82
2023/12/08 12:27:41;;;;;;;20.60;12.03;;;9.10;99.90;;;;;;5031205;28;20187;-82
2023/12/08 12:30:10;;;;;;;21.80;11.33;;;9.10;99.90;;;;;;5030673;28;20272;-83
2023/12/08 12:32:40;;;;;;;22.40;11.00;;;9.10;99.90;;;;;;5031282;28;20186;-84
2023/12/08 12:35:07;;;;;;;23.10;10.80;;;9.20;99.90;;;;;;5032065;28;20181;-83
2023/12/08 12:37:34;;;;;;;18.50;10.10;;;9.20;99.90;;;;;;5031337;28;20185;-84
2023/12/08 12:40:00;;;;;;;20.73;9.63;;;9.30;99.90;;;;;;5030395;28;20197;-85